Time;durP1;ratioP1;P1;durP2;ratioP2;P2;SDS_P1;SDS_P2;PMS_P1;PMS_P2;Temp;Humidity;BMP_temperature;BMP_pressure;BME280_temperature;BME280_humidity;BME280_pressure;Samples;Min_cycle;Max_cycle;Signal;HPM_P1;HPM_P2
2021/04/07 03:20:15;;;;;;;51.90;21.25;;;;;;;0.12;52.75;99741.28;5318144;26;20081;-84
2021/04/07 03:23:01;;;;;;;14.32;8.80;;;;;;;-0.40;53.92;99743.38;5318842;27;20358;-84
2021/04/07 04:23:40;;;;;;;16.67;8.48;;;;;;;-0.68;51.58;99801.03;5311014;26;20061;-82
2021/04/07 04:26:27;;;;;;;18.10;10.10;;;;;;;-0.83;51.58;99798.00;5319751;27;20080;-82
2021/04/07 04:29:13;;;;;;;22.73;10.18;;;;;;;-0.71;52.79;99806.12;5318233;27;20075;-82
2021/04/07 04:31:48;;;;;;;20.60;8.50;;;;;;;-0.50;51.99;99799.03;5319484;27;20062;-82
2021/04/07 04:58:08;;;;;;;32.53;19.75;;;;;;;3.05;46.64;99824.97;5208271;27;20476;-82
2021/04/07 05:24:35;;;;;;;20.02;14.02;;;;;;;10.10;31.80;99841.66;5220180;27;20046;-82
2021/04/07 05:27:22;;;;;;;18.25;12.27;;;;;;;10.53;30.63;99842.84;5256310;27;20065;-83
2021/04/07 05:29:56;;;;;;;17.42;11.38;;;;;;;10.94;29.87;99846.63;5255217;27;20063;-84
2021/04/07 05:32:23;;;;;;;22.65;16.75;;;;;;;11.24;29.81;99853.16;5256248;27;20106;-83
2021/04/07 05:35:11;;;;;;;27.60;19.33;;;;;;;11.47;29.35;99858.88;5239381;27;20070;-83
2021/04/07 05:37:53;;;;;;;51.15;38.58;;;;;;;11.40;29.37;99866.88;5256041;27;20096;-84
2021/04/07 05:40:20;;;;;;;101.68;85.15;;;;;;;10.37;31.33;99876.34;5256972;27;20057;-84
2021/04/07 05:42:54;;;;;;;45.72;34.30;;;;;;;10.14;32.86;99885.34;5255734;27;20049;-83
2021/04/07 05:45:20;;;;;;;26.70;17.35;;;;;;;10.31;32.85;99886.94;5255433;27;20069;-84
2021/04/07 05:47:47;;;;;;;64.03;40.28;;;;;;;10.19;32.72;99888.78;5255104;27;20062;-83
2021/04/07 05:50:16;;;;;;;32.38;21.42;;;;;;;10.21;33.15;99897.53;5256838;27;20068;-84
2021/04/07 05:53:11;;;;;;;44.83;27.00;;;;;;;10.51;32.96;99890.19;5258057;27;20057;-83
2021/04/07 05:55:43;;;;;;;44.00;24.87;;;;;;;11.52;30.92;99888.56;5255634;27;20062;-84
2021/04/07 05:58:19;;;;;;;33.35;17.17;;;;;;;11.32;31.72;99895.94;5254698;27;20053;-82
2021/04/07 06:00:47;;;;;;;28.95;18.23;;;;;;;10.93;32.38;99913.22;5257017;27;20084;-84
2021/04/07 06:03:14;;;;;;;28.33;20.88;;;;;;;9.56;35.19;99904.38;5255613;27;20049;-82
2021/04/07 06:05:50;;;;;;;35.28;23.27;;;;;;;8.73;36.20;99915.47;5253425;27;20116;-88
2021/04/07 06:08:18;;;;;;;31.02;21.05;;;;;;;9.07;35.94;99918.75;5238787;27;20443;-83
2021/04/07 06:10:47;;;;;;;59.45;25.80;;;;;;;9.63;34.34;99919.16;5255093;27;20125;-86
2021/04/07 06:13:17;;;;;;;37.50;26.42;;;;;;;9.66;33.98;99920.88;5260389;27;20112;-85
2021/04/07 06:15:45;;;;;;;38.13;26.10;;;;;;;10.44;32.92;99927.91;5265267;27;20117;-82
2021/04/07 06:18:32;;;;;;;38.28;25.45;;;;;;;10.74;32.37;99921.38;5260136;27;20065;-82
2021/04/07 09:27:37;;;;;;;4.93;2.45;;;;;;;9.71;30.13;100006.53;5296823;26;20080;-82
2021/04/07 09:30:06;;;;;;;5.15;2.92;;;;;;;9.22;31.59;100017.38;5320803;27;20053;-81
2021/04/07 10:22:41;;;;;;;6.95;4.00;;;;;;;10.38;27.73;100020.78;5293419;26;20074;-79
2021/04/07 10:25:20;;;;;;;6.82;3.72;;;;;;;9.66;29.34;100036.31;5320247;27;20067;-80
2021/04/07 10:27:47;;;;;;;5.68;2.83;;;;;;;10.63;28.82;100031.88;5320221;27;20052;-80
2021/04/07 10:30:23;;;;;;;2.80;2.10;;;;;;;10.70;29.88;100032.66;5319893;27;20135;-80
2021/04/07 10:32:55;;;;;;;4.57;2.50;;;;;;;10.83;28.34;100038.66;5320082;27;20098;-80
2021/04/07 10:35:34;;;;;;;66.28;10.02;;;;;;;10.62;28.94;100029.28;5320291;27;20080;-79
2021/04/07 10:38:20;;;;;;;213.52;25.35;;;;;;;11.49;28.35;100029.84;5319628;27;20061;-82
2021/04/07 10:41:09;;;;;;;6.12;2.95;;;;;;;11.74;27.37;100023.28;5318935;27;20086;-79
2021/04/07 10:43:55;;;;;;;4.60;2.50;;;;;;;12.07;26.33;100030.69;5320230;27;20065;-79
2021/04/07 10:46:30;;;;;;;4.40;2.72;;;;;;;12.10;25.22;100030.63;5319441;27;20073;-78
2021/04/07 10:48:58;;;;;;;7.75;3.95;;;;;;;11.55;27.75;100041.13;5300218;27;20120;-79
2021/04/07 10:51:26;;;;;;;12.02;3.78;;;;;;;10.52;28.76;100036.38;5319935;27;20072;-79
2021/04/07 10:53:59;;;;;;;13.27;9.82;;;;;;;10.54;28.52;100039.88;5300767;27;20076;-79
2021/04/07 10:56:27;;;;;;;7.25;4.05;;;;;;;10.15;30.25;100051.63;5319751;27;20100;-79
2021/04/07 10:59:00;;;;;;;11.67;4.30;;;;;;;11.14;32.13;100050.47;5300470;27;20056;-79
2021/04/07 11:01:31;;;;;;;10.82;4.72;;;;;;;11.62;29.60;100041.91;5319874;27;20140;-79
2021/04/07 11:04:19;;;;;;;61.75;9.23;;;;;;;12.42;28.89;100035.28;5320262;27;20068;-80
2021/04/07 11:06:54;;;;;;;6.12;3.47;;;;;;;12.96;27.73;100028.00;5320280;27;20067;-82
2021/04/07 11:09:24;;;;;;;5.62;3.00;;;;;;;12.76;25.71;100032.84;5320185;27;20072;-79
2021/04/07 11:11:51;;;;;;;3.45;2.37;;;;;;;12.74;25.31;100026.75;5320048;27;20058;-79
2021/04/07 11:14:17;;;;;;;5.78;4.07;;;;;;;12.54;25.34;100026.28;5320192;27;20120;-79
2021/04/07 11:16:44;;;;;;;7.60;3.33;;;;;;;11.71;26.88;100035.62;5320263;27;20214;-78
2021/04/07 12:06:06;;;;;;;6.12;2.90;;;;;;;10.95;25.85;100075.28;5310163;26;20098;-80
2021/04/07 12:08:33;;;;;;;6.32;2.55;;;;;;;11.53;25.38;100068.34;5299353;27;20115;-83
2021/04/07 12:11:00;;;;;;;23.73;3.60;;;;;;;11.56;25.77;100074.47;5317915;27;20064;-80
2021/04/07 12:13:27;;;;;;;12.23;6.97;;;;;;;11.36;24.54;100072.09;5318852;27;20080;-81
2021/04/07 12:15:55;;;;;;;9.82;4.55;;;;;;;11.75;24.28;100063.63;5319331;27;20053;-80
2021/04/07 12:18:22;;;;;;;7.97;4.00;;;;;;;11.79;26.24;100073.22;5318149;27;20061;-80
2021/04/07 12:20:49;;;;;;;7.90;3.72;;;;;;;12.07;25.05;100063.13;5299027;27;20087;-80
2021/04/07 12:23:18;;;;;;;15.52;8.25;;;;;;;12.14;23.76;100058.63;5299139;27;20065;-83
2021/04/07 12:25:46;;;;;;;9.68;5.10;;;;;;;12.10;24.31;100065.72;5319305;27;20558;-80
2021/04/07 12:28:13;;;;;;;7.22;3.97;;;;;;;12.07;25.41;100060.50;5318994;27;20061;-81
2021/04/07 12:30:50;;;;;;;4.45;2.60;;;;;;;12.17;24.97;100063.84;5319275;27;20060;-81
2021/04/07 12:33:22;;;;;;;3.53;1.95;;;;;;;11.76;24.22;100062.72;5318814;27;20076;-83
2021/04/07 12:35:50;;;;;;;5.75;2.10;;;;;;;11.58;24.53;100070.00;5319209;27;20123;-84
2021/04/07 12:38:17;;;;;;;5.85;3.30;;;;;;;11.53;23.82;100073.59;5300819;27;20110;-82
2021/04/07 12:40:47;;;;;;;7.05;2.30;;;;;;;10.61;25.41;100091.44;5301856;27;20076;-81
2021/04/07 12:43:14;;;;;;;4.47;3.25;;;;;;;10.38;28.11;100089.06;5321445;27;20411;-82
2021/04/07 12:45:41;;;;;;;4.78;2.22;;;;;;;9.91;30.04;100100.84;5321465;27;20084;-84
2021/04/07 12:48:08;;;;;;;7.62;3.42;;;;;;;9.85;31.26;100120.97;5321019;27;20365;-83
2021/04/07 12:50:36;;;;;;;5.45;3.15;;;;;;;9.28;33.68;100131.81;5302063;27;20147;-81
2021/04/07 12:53:04;;;;;;;7.57;3.62;;;;;;;8.87;35.22;100146.81;5321417;27;20065;-81
2021/04/07 12:55:32;;;;;;;8.73;4.22;;;;;;;8.23;37.64;100161.72;5321394;27;20044;-81
2021/04/07 12:58:00;;;;;;;6.68;4.18;;;;;;;8.25;38.13;100173.06;5321222;27;20454;-81
2021/04/07 13:00:28;;;;;;;6.25;4.00;;;;;;;8.90;38.00;100174.75;5321426;27;20129;-82
2021/04/07 13:02:55;;;;;;;12.60;4.68;;;;;;;9.32;36.14;100181.62;5321865;27;20245;-82
2021/04/07 13:05:21;;;;;;;6.72;3.85;;;;;;;8.99;38.08;100189.59;5320886;27;20053;-82
2021/04/07 13:07:48;;;;;;;7.10;4.28;;;;;;;9.18;38.18;100188.66;5301098;27;20429;-81
2021/04/07 13:10:18;;;;;;;13.18;5.45;;;;;;;9.16;38.11;100197.41;5321316;27;20433;-82
2021/04/07 13:12:44;;;;;;;7.62;3.17;;;;;;;9.52;37.66;100183.28;5321558;27;20070;-81
2021/04/07 13:15:12;;;;;;;10.95;6.18;;;;;;;9.75;36.39;100180.53;5301991;27;20079;-81
2021/04/07 13:17:58;;;;;;;12.37;5.60;;;;;;;9.86;36.45;100186.59;5304071;27;20403;-81
2021/04/07 13:20:45;;;;;;;9.82;5.12;;;;;;;9.97;36.37;100192.66;5321368;27;20072;-81
2021/04/07 13:23:28;;;;;;;5.37;3.03;;;;;;;9.84;36.63;100187.47;5303402;27;20070;-82
2021/04/07 13:25:55;;;;;;;7.05;3.35;;;;;;;9.52;36.32;100188.50;5322792;27;20053;-82
2021/04/07 13:28:41;;;;;;;12.23;5.95;;;;;;;10.59;34.95;100190.44;5303841;27;20411;-83
2021/04/07 13:31:28;;;;;;;11.25;7.62;;;;;;;11.14;34.97;100181.09;5321349;27;20075;-80
2021/04/07 13:34:25;;;;;;;6.82;3.20;;;;;;;11.46;34.33;100178.06;5304749;27;20072;-80
2021/04/07 13:37:34;;;;;;;6.25;3.90;;;;;;;12.13;33.86;100181.53;5319764;27;20110;-82
2021/04/07 13:40:23;;;;;;;3.60;2.20;;;;;;;12.69;32.75;100178.84;5302948;27;20065;-81
2021/04/07 13:42:52;;;;;;;10.60;5.37;;;;;;;12.96;31.40;100175.69;5320649;27;20057;-80
2021/04/07 13:45:24;;;;;;;14.85;7.10;;;;;;;12.65;31.84;100179.81;5321106;27;20096;-80
2021/04/07 13:47:53;;;;;;;7.60;4.12;;;;;;;12.94;29.53;100181.88;5321015;27;20058;-81
2021/04/07 13:50:20;;;;;;;8.07;2.20;;;;;;;12.35;30.84;100189.97;5319459;27;20437;-82
2021/04/07 13:52:49;;;;;;;6.62;3.87;;;;;;;12.75;30.55;100186.66;5319759;27;20461;-81
2021/04/07 13:55:18;;;;;;;6.70;4.00;;;;;;;12.76;32.52;100180.47;5318146;27;20345;-80
2021/04/07 13:57:45;;;;;;;6.33;3.60;;;;;;;12.97;29.90;100179.22;5319745;27;20061;-80
2021/04/07 14:00:12;;;;;;;3.53;2.35;;;;;;;12.91;30.00;100180.22;5319770;27;20072;-79
2021/04/07 14:02:39;;;;;;;8.15;2.08;;;;;;;12.99;30.00;100179.19;5320194;27;20124;-83
2021/04/07 14:05:25;;;;;;;6.43;1.80;;;;;;;13.02;30.03;100172.06;5319661;27;20061;-80
2021/04/07 14:07:53;;;;;;;4.72;2.35;;;;;;;12.15;30.76;100174.50;5299800;27;20138;-81
2021/04/07 14:10:30;;;;;;;4.60;2.30;;;;;;;12.84;29.80;100165.38;5300851;27;20080;-80
2021/04/07 14:13:07;;;;;;;4.28;1.70;;;;;;;12.86;29.79;100174.16;5299333;27;20065;-83
2021/04/07 14:15:34;;;;;;;3.83;2.20;;;;;;;13.18;29.17;100178.78;5317824;27;20831;-81
2021/04/07 14:18:01;;;;;;;4.72;2.55;;;;;;;12.80;29.53;100173.41;5297776;27;20466;-83
2021/04/07 14:20:27;;;;;;;2.40;1.90;;;;;;;13.13;29.46;100170.09;5317896;27;20672;-81
2021/04/07 14:22:54;;;;;;;8.27;2.25;;;;;;;13.26;28.81;100176.03;5297763;27;20084;-81
2021/04/07 14:25:27;;;;;;;4.32;2.20;;;;;;;13.44;28.74;100173.91;5317146;27;20057;-81
2021/04/07 14:28:01;;;;;;;5.70;2.92;;;;;;;13.13;29.30;100167.47;5298298;27;20115;-84
2021/04/07 14:30:30;;;;;;;5.35;2.97;;;;;;;12.90;28.75;100167.03;5319183;27;20064;-81
2021/04/07 14:32:56;;;;;;;3.90;2.70;;;;;;;12.73;29.40;100167.34;5300275;27;20455;-81
2021/04/07 14:35:23;;;;;;;6.22;3.00;;;;;;;13.23;27.94;100168.12;5319299;27;20712;-80
2021/04/07 14:37:50;;;;;;;5.95;3.05;;;;;;;12.71;29.34;100169.16;5319382;27;20103;-80
2021/04/07 14:40:16;;;;;;;8.23;3.05;;;;;;;10.82;31.24;100184.06;5319364;27;20052;-80
2021/04/07 14:42:43;;;;;;;8.10;4.47;;;;;;;11.10;31.98;100188.16;5319267;27;20072;-81
2021/04/07 14:45:11;;;;;;;7.65;4.55;;;;;;;11.83;30.72;100194.25;5319917;27;20382;-80
2021/04/07 14:47:38;;;;;;;4.15;2.87;;;;;;;11.19;30.38;100202.09;5299961;27;20076;-81
2021/04/07 14:50:13;;;;;;;6.97;3.70;;;;;;;9.59;31.37;100206.00;5299979;27;20049;-81
2021/04/07 14:52:40;;;;;;;5.57;3.50;;;;;;;9.43;32.38;100207.78;5319549;27;20057;-80
2021/04/07 14:55:07;;;;;;;7.03;3.70;;;;;;;9.59;32.38;100212.94;5319757;27;20137;-80
2021/04/07 14:57:34;;;;;;;4.32;3.05;;;;;;;9.90;31.66;100216.31;5319542;27;20102;-81
2021/04/07 15:00:05;;;;;;;6.28;3.90;;;;;;;10.26;30.53;100206.44;5319163;27;20100;-81
2021/04/07 15:02:44;;;;;;;5.78;2.75;;;;;;;9.14;32.71;100213.13;5319400;27;20061;-80
2021/04/07 15:05:12;;;;;;;6.78;3.72;;;;;;;8.75;32.88;100222.81;5319902;27;20078;-81
2021/04/07 15:07:38;;;;;;;14.02;6.40;;;;;;;8.62;33.70;100234.19;5299912;27;20067;-80
2021/04/07 15:10:09;;;;;;;12.10;6.55;;;;;;;9.31;32.40;100231.44;5319736;27;20053;-84
2021/04/07 15:12:36;;;;;;;13.65;5.37;;;;;;;9.77;32.49;100234.75;5320312;27;20070;-83
2021/04/07 15:15:04;;;;;;;6.45;3.40;;;;;;;9.91;31.48;100239.03;5319739;27;20131;-84
2021/04/07 15:17:31;;;;;;;6.12;3.85;;;;;;;9.17;32.22;100244.56;5319959;27;20128;-83
2021/04/07 15:19:58;;;;;;;5.85;3.33;;;;;;;9.07;32.07;100242.88;5319594;27;20053;-81
2021/04/07 15:22:24;;;;;;;6.37;3.95;;;;;;;9.95;31.17;100241.63;5319361;27;20084;-81
2021/04/07 15:24:51;;;;;;;7.07;4.18;;;;;;;9.06;31.72;100249.00;5319354;27;20072;-81
2021/04/07 15:27:27;;;;;;;14.40;6.75;;;;;;;8.82;31.56;100257.75;5319739;27;20686;-81
2021/04/07 15:29:54;;;;;;;7.62;4.18;;;;;;;9.76;30.91;100255.72;5319690;27;20059;-83
2021/04/07 15:32:21;;;;;;;7.15;3.95;;;;;;;10.35;30.52;100258.91;5320056;27;20331;-84
2021/04/07 15:34:48;;;;;;;10.48;6.55;;;;;;;10.55;28.86;100264.03;5319598;27;20116;-80
2021/04/07 15:37:14;;;;;;;9.15;5.20;;;;;;;10.43;29.75;100267.63;5319814;27;20065;-81
2021/04/07 15:39:41;;;;;;;7.95;4.43;;;;;;;10.66;28.93;100264.81;5319579;27;20395;-80
2021/04/07 15:42:09;;;;;;;8.55;4.47;;;;;;;11.00;28.53;100264.50;5319611;27;20210;-80
2021/04/07 15:44:35;;;;;;;11.55;5.90;;;;;;;10.95;28.51;100269.81;5319693;27;20413;-81
2021/04/07 15:47:02;;;;;;;9.45;5.75;;;;;;;10.62;28.31;100271.00;5319684;27;20151;-83
2021/04/07 15:49:29;;;;;;;5.70;3.33;;;;;;;10.79;29.29;100270.81;5299307;27;20104;-83
2021/04/07 15:52:16;;;;;;;12.20;7.05;;;;;;;10.66;28.39;100273.56;5319086;27;20142;-81
2021/04/07 15:54:42;;;;;;;9.07;5.15;;;;;;;10.67;28.60;100284.94;5299004;27;20069;-80
2021/04/07 15:57:09;;;;;;;7.50;4.00;;;;;;;11.03;27.86;100282.88;5299832;27;20060;-80
2021/04/07 15:59:37;;;;;;;8.75;4.37;;;;;;;11.23;27.44;100278.28;5319663;27;20049;-81
2021/04/07 16:02:07;;;;;;;9.30;5.30;;;;;;;10.77;27.94;100280.50;5319542;27;20381;-81
2021/04/07 16:04:39;;;;;;;9.73;5.15;;;;;;;10.89;28.02;100277.75;5319783;27;20075;-80
2021/04/07 16:07:06;;;;;;;8.13;2.60;;;;;;;11.04;27.83;100282.88;5299639;27;20060;-80
2021/04/07 16:09:33;;;;;;;18.50;3.83;;;;;;;11.19;29.97;100284.47;5319553;27;20055;-80
2021/04/07 16:12:00;;;;;;;9.88;5.03;;;;;;;11.52;29.77;100292.88;5319301;27;20072;-80
2021/04/07 16:14:27;;;;;;;8.23;3.70;;;;;;;11.66;29.73;100290.09;5319766;27;20070;-81
2021/04/07 16:16:53;;;;;;;8.23;3.62;;;;;;;11.76;29.81;100283.81;5299557;27;20136;-81
2021/04/07 16:19:20;;;;;;;4.75;2.95;;;;;;;11.89;30.01;100290.72;5319512;27;20035;-82
2021/04/07 16:21:47;;;;;;;4.68;3.00;;;;;;;11.61;30.74;100298.03;5300052;27;20064;-83
2021/04/07 16:24:14;;;;;;;5.35;2.37;;;;;;;11.91;30.38;100290.69;5319641;27;20060;-81
2021/04/07 16:26:43;;;;;;;6.93;3.20;;;;;;;12.07;30.16;100302.78;5319552;27;20061;-82
2021/04/07 16:29:10;;;;;;;5.90;4.07;;;;;;;12.34;29.93;100311.19;5319556;27;20123;-81
2021/04/07 16:31:37;;;;;;;10.73;3.80;;;;;;;12.18;30.38;100307.91;5319573;27;20492;-81
2021/04/07 16:34:04;;;;;;;3.70;1.80;;;;;;;12.14;30.29;100307.06;5319574;27;20122;-81
2021/04/07 16:36:30;;;;;;;6.62;3.10;;;;;;;12.17;29.17;100311.41;5319390;27;20171;-81
2021/04/07 16:38:57;;;;;;;7.32;3.30;;;;;;;12.20;30.00;100317.50;5319486;27;20440;-82
2021/04/07 16:41:24;;;;;;;4.12;3.08;;;;;;;12.27;29.89;100308.66;5319373;27;20372;-81
2021/04/07 16:43:50;;;;;;;4.60;2.70;;;;;;;12.35;29.93;100313.78;5319455;27;20075;-81
2021/04/07 16:46:23;;;;;;;7.25;3.03;;;;;;;12.11;30.56;100319.41;5319397;27;20113;-81
2021/04/07 16:48:50;;;;;;;5.82;2.78;;;;;;;12.07;30.81;100320.34;5319403;27;20049;-81
2021/04/07 16:51:21;;;;;;;6.10;3.12;;;;;;;12.31;30.40;100324.41;5319697;27;20091;-81
2021/04/07 16:53:49;;;;;;;3.90;2.22;;;;;;;12.11;30.62;100335.22;5319560;27;20071;-81
2021/04/07 16:56:15;;;;;;;5.10;2.72;;;;;;;12.09;30.46;100324.72;5319160;27;20410;-81
2021/04/07 16:58:42;;;;;;;8.32;2.65;;;;;;;12.13;30.21;100341.34;5319517;27;20350;-81
2021/04/07 17:01:12;;;;;;;3.05;1.98;;;;;;;11.68;30.76;100340.97;5300399;27;20469;-81
2021/04/07 17:03:39;;;;;;;6.72;3.17;;;;;;;11.77;30.82;100348.75;5319315;27;20061;-82
2021/04/07 17:06:05;;;;;;;7.55;4.28;;;;;;;11.06;32.50;100353.81;5319188;27;20049;-81
2021/04/07 17:08:40;;;;;;;8.38;4.55;;;;;;;11.12;31.78;100357.31;5319301;27;20075;-81
2021/04/07 17:11:07;;;;;;;6.40;4.45;;;;;;;9.78;31.52;100377.31;5319240;27;20057;-81
2021/04/07 17:13:34;;;;;;;8.48;5.62;;;;;;;9.58;31.51;100381.72;5319325;27;20128;-81
2021/04/07 17:16:00;;;;;;;7.32;4.60;;;;;;;9.45;31.17;100375.63;5319274;27;20067;-81
2021/04/07 17:18:27;;;;;;;9.60;5.22;;;;;;;8.71;32.38;100380.00;5318984;27;20089;-81
2021/04/07 17:20:55;;;;;;;9.85;5.12;;;;;;;8.12;33.15;100384.19;5319166;27;20069;-81
2021/04/07 17:23:22;;;;;;;18.87;7.90;;;;;;;7.68;32.89;100392.69;5319385;27;20411;-81
2021/04/07 17:25:49;;;;;;;10.45;4.50;;;;;;;7.36;33.86;100395.94;5320134;27;20053;-81
2021/04/07 17:28:17;;;;;;;5.97;3.50;;;;;;;7.25;33.64;100411.53;5320161;27;20426;-81
2021/04/07 17:30:44;;;;;;;8.82;4.12;;;;;;;7.59;33.20;100406.56;5320236;27;20124;-81
2021/04/07 17:33:12;;;;;;;10.75;5.78;;;;;;;7.81;33.01;100407.56;5320154;27;20091;-81
2021/04/07 17:35:39;;;;;;;7.37;3.65;;;;;;;7.98;33.11;100423.34;5320312;27;20067;-81
2021/04/07 17:38:28;;;;;;;6.47;3.28;;;;;;;7.60;33.10;100418.78;5300154;27;20111;-81
2021/04/07 17:40:58;;;;;;;7.28;3.58;;;;;;;7.28;33.43;100431.59;5319980;27;20419;-81
2021/04/07 17:43:24;;;;;;;;;;;;;;;7.03;33.98;100447.09;5320305;27;20089;-81
2021/04/07 17:45:51;;;;;;;5.60;2.50;;;;;;;7.08;33.54;100444.50;5320357;27;20027;-81
2021/04/07 17:48:17;;;;;;;4.87;1.58;;;;;;;6.75;34.21;100445.91;5320474;27;20055;-81
2021/04/07 17:50:44;;;;;;;7.32;4.25;;;;;;;6.72;34.18;100456.34;5320234;27;20087;-81
2021/04/07 17:53:11;;;;;;;13.32;6.65;;;;;;;6.80;34.12;100467.75;5319896;27;20092;-81
2021/04/07 17:55:38;;;;;;;9.70;5.25;;;;;;;6.86;34.01;100471.28;5320176;27;20052;-81
2021/04/07 17:58:09;;;;;;;6.62;4.30;;;;;;;7.25;33.67;100476.88;5319812;27;20051;-80
2021/04/07 18:00:35;;;;;;;3.87;2.47;;;;;;;7.30;33.23;100474.31;5320213;27;20111;-81
2021/04/07 18:03:03;;;;;;;8.15;4.18;;;;;;;6.78;33.85;100481.63;5300282;27;20076;-81
2021/04/07 18:05:29;;;;;;;9.35;6.53;;;;;;;7.16;33.70;100482.03;5320297;27;20049;-80
2021/04/07 18:07:55;;;;;;;10.35;7.68;;;;;;;7.04;33.66;100477.56;5319975;27;20056;-81
2021/04/07 18:10:22;;;;;;;24.25;18.00;;;;;;;7.49;32.57;100483.19;5300639;27;20060;-80
2021/04/07 18:12:51;;;;;;;63.60;34.95;;;;;;;6.93;33.53;100484.41;5319846;27;20407;-81
2021/04/07 18:15:18;;;;;;;76.68;42.45;;;;;;;7.34;33.01;100494.37;5320169;27;20057;-80
2021/04/07 18:17:53;;;;;;;84.25;49.10;;;;;;;6.81;33.70;100492.13;5319922;27;20053;-81
2021/04/07 18:20:20;;;;;;;74.55;39.70;;;;;;;6.75;33.95;100499.88;5320046;27;20092;-81
2021/04/07 18:22:48;;;;;;;23.52;15.63;;;;;;;7.21;33.05;100493.41;5320036;27;20071;-80
2021/04/07 18:25:15;;;;;;;10.02;6.28;;;;;;;7.13;32.94;100491.59;5319958;27;20432;-82
2021/04/07 18:27:41;;;;;;;13.20;6.97;;;;;;;6.53;34.05;100509.19;5319798;27;20059;-81
2021/04/07 18:30:13;;;;;;;8.27;5.53;;;;;;;6.95;33.47;100500.12;5319963;27;20071;-81
2021/04/07 18:32:39;;;;;;;7.95;5.05;;;;;;;7.20;33.23;100493.38;5320133;27;20076;-81
2021/04/07 18:35:06;;;;;;;6.07;3.62;;;;;;;7.03;33.47;100503.69;5320008;27;20072;-81
2021/04/07 18:37:33;;;;;;;6.45;3.45;;;;;;;6.93;33.69;100505.31;5300190;27;20059;-82
2021/04/07 18:39:59;;;;;;;10.57;6.15;;;;;;;6.81;33.71;100515.63;5319983;27;20072;-80
2021/04/07 18:42:26;;;;;;;11.35;5.53;;;;;;;7.41;33.06;100508.37;5319809;27;20085;-81
2021/04/07 18:44:53;;;;;;;16.77;6.45;;;;;;;7.42;32.72;100510.16;5300221;27;20438;-80
2021/04/07 18:47:19;;;;;;;10.10;5.47;;;;;;;7.41;32.65;100511.91;5319949;27;20049;-80
2021/04/07 18:49:46;;;;;;;9.38;5.37;;;;;;;7.34;32.83;100515.28;5320443;27;20079;-80
2021/04/07 18:52:12;;;;;;;14.25;6.10;;;;;;;7.21;33.18;100521.28;5319926;27;20060;-80
2021/04/07 18:54:39;;;;;;;10.90;4.97;;;;;;;7.34;32.82;100522.25;5300456;27;20135;-81
2021/04/07 18:57:06;;;;;;;10.85;4.82;;;;;;;7.29;33.14;100530.03;5300238;27;20061;-81
2021/04/07 18:59:33;;;;;;;11.48;6.53;;;;;;;6.70;34.24;100536.38;5319868;27;20071;-81
2021/04/07 19:02:00;;;;;;;15.82;6.87;;;;;;;6.58;34.24;100552.75;5320085;27;20060;-81
2021/04/07 19:04:26;;;;;;;17.10;6.95;;;;;;;6.58;34.39;100552.75;5320154;27;20057;-81
2021/04/07 19:06:53;;;;;;;18.35;7.50;;;;;;;6.64;34.19;100548.50;5319801;27;20054;-82
2021/04/07 19:09:19;;;;;;;23.35;10.80;;;;;;;6.90;33.86;100544.44;5320040;27;20060;-81
2021/04/07 19:11:46;;;;;;;23.83;9.60;;;;;;;7.05;33.60;100544.63;5320109;27;20056;-82
2021/04/07 19:14:16;;;;;;;15.55;7.97;;;;;;;7.19;33.40;100551.75;5319866;27;20087;-81
2021/04/07 19:16:45;;;;;;;14.43;6.85;;;;;;;6.51;34.45;100561.38;5319986;27;20060;-81
2021/04/07 19:19:12;;;;;;;13.25;8.20;;;;;;;7.19;33.54;100564.81;5319676;27;20057;-81
2021/04/07 19:21:39;;;;;;;13.68;8.43;;;;;;;7.43;33.04;100566.78;5319970;27;20075;-81
2021/04/07 19:24:07;;;;;;;18.02;8.35;;;;;;;7.48;32.91;100565.09;5319838;27;20484;-81
2021/04/07 19:26:34;;;;;;;13.32;7.45;;;;;;;6.87;34.07;100574.88;5319872;27;20049;-81
2021/04/07 19:29:00;;;;;;;12.23;7.03;;;;;;;6.81;34.70;100584.41;5299909;27;20139;-82
2021/04/07 19:31:27;;;;;;;10.35;5.82;;;;;;;7.24;33.80;100590.13;5319993;27;20488;-81
2021/04/07 19:33:53;;;;;;;11.52;6.05;;;;;;;7.20;33.82;100592.69;5300217;27;20122;-81
2021/04/07 19:36:20;;;;;;;9.18;4.93;;;;;;;7.36;33.38;100586.78;5319939;27;20065;-81
2021/04/07 19:38:48;;;;;;;9.02;4.75;;;;;;;6.93;34.43;100599.34;5319999;27;20708;-81
2021/04/07 19:41:16;;;;;;;7.75;4.03;;;;;;;6.89;34.31;100599.31;5319810;27;20611;-82
2021/04/07 19:43:44;;;;;;;8.10;3.95;;;;;;;6.75;36.44;100606.94;5319763;27;20508;-81
2021/04/07 19:46:11;;;;;;;6.45;3.95;;;;;;;6.67;36.21;100605.97;5299865;27;20049;-81
2021/04/07 19:48:39;;;;;;;7.00;3.58;;;;;;;6.52;35.90;100607.50;5319589;27;20111;-81
2021/04/07 19:51:07;;;;;;;6.40;3.05;;;;;;;6.57;35.67;100610.19;5320122;27;20060;-81
2021/04/07 19:53:48;;;;;;;7.80;3.10;;;;;;;6.46;35.82;100612.66;5320022;27;20064;-81
2021/04/07 19:56:15;;;;;;;11.98;3.72;;;;;;;6.80;35.02;100610.50;5319671;27;20096;-81
2021/04/07 19:58:41;;;;;;;20.20;4.28;;;;;;;6.76;35.14;100611.31;5319502;27;20061;-81
2021/04/07 20:01:08;;;;;;;12.35;3.47;;;;;;;6.98;34.63;100618.56;5300123;27;20415;-81
2021/04/07 20:03:35;;;;;;;6.28;3.42;;;;;;;6.98;35.08;100620.31;5299991;27;20391;-81
2021/04/07 20:06:02;;;;;;;6.15;2.80;;;;;;;6.62;35.13;100626.81;5319611;27;20108;-82
2021/04/07 20:08:28;;;;;;;7.50;3.20;;;;;;;6.70;35.32;100626.91;5319814;27;20113;-82
2021/04/07 20:10:55;;;;;;;8.25;3.37;;;;;;;6.52;36.21;100630.13;5320145;27;20077;-82
2021/04/07 20:13:21;;;;;;;5.93;3.50;;;;;;;6.14;36.25;100625.22;5319826;27;20626;-81
2021/04/07 20:15:48;;;;;;;9.55;4.30;;;;;;;5.86;37.83;100637.78;5319454;27;20061;-81
2021/04/07 20:18:15;;;;;;;5.80;2.87;;;;;;;5.90;37.02;100628.25;5319519;27;20075;-82
2021/04/07 20:20:42;;;;;;;11.98;6.32;;;;;;;6.28;36.78;100643.69;5319755;27;20075;-81
2021/04/07 20:23:08;;;;;;;9.93;4.78;;;;;;;5.74;38.23;100639.31;5319708;27;20379;-81
2021/04/07 20:25:38;;;;;;;7.00;3.85;;;;;;;5.84;37.30;100636.00;5319633;27;20413;-81
2021/04/07 20:28:06;;;;;;;6.97;4.07;;;;;;;5.73;37.34;100655.78;5319698;27;20071;-81
2021/04/07 20:30:39;;;;;;;8.13;4.35;;;;;;;5.48;38.24;100655.34;5319610;27;20057;-82
2021/04/07 20:33:11;;;;;;;6.07;3.42;;;;;;;5.79;36.94;100666.31;5319820;27;20167;-81
2021/04/07 20:35:42;;;;;;;7.32;3.67;;;;;;;5.88;37.19;100656.03;5319685;27;20418;-81
2021/04/07 20:38:10;;;;;;;8.07;4.45;;;;;;;6.05;36.65;100657.25;5319520;27;20067;-81
2021/04/07 20:40:38;;;;;;;8.25;5.03;;;;;;;6.08;36.49;100656.41;5319473;27;20057;-82
2021/04/07 20:43:04;;;;;;;8.30;4.28;;;;;;;5.89;37.04;100665.62;5319452;27;20083;-82
2021/04/07 20:45:32;;;;;;;8.65;4.90;;;;;;;6.14;36.47;100666.94;5299532;27;20056;-81
2021/04/07 20:48:00;;;;;;;6.95;3.87;;;;;;;5.92;36.08;100669.16;5319396;27;20415;-82
2021/04/07 20:50:26;;;;;;;7.47;3.80;;;;;;;6.01;36.35;100670.22;5319526;27;20289;-81
2021/04/07 20:52:53;;;;;;;9.60;5.22;;;;;;;6.12;36.23;100681.72;5319437;27;20062;-82
2021/04/07 20:55:19;;;;;;;10.98;4.65;;;;;;;5.97;36.36;100676.22;5299519;27;20052;-81
2021/04/07 20:57:46;;;;;;;12.43;5.65;;;;;;;6.02;36.40;100683.28;5320110;27;20121;-81
2021/04/07 21:00:13;;;;;;;10.10;5.68;;;;;;;5.98;36.38;100676.25;5320110;27;20162;-81
2021/04/07 21:02:39;;;;;;;12.27;6.18;;;;;;;6.04;36.24;100678.97;5320534;27;20066;-81
2021/04/07 21:05:06;;;;;;;10.98;5.12;;;;;;;5.78;36.21;100680.22;5320403;27;20103;-81
2021/04/07 21:07:37;;;;;;;11.25;4.72;;;;;;;5.81;36.40;100680.25;5320164;27;20068;-81
2021/04/07 21:10:05;;;;;;;6.87;3.15;;;;;;;5.71;36.62;100681.84;5320352;27;20597;-81
2021/04/07 21:12:32;;;;;;;10.18;6.00;;;;;;;5.49;36.78;100683.12;5320412;27;20057;-81
2021/04/07 21:14:58;;;;;;;11.32;4.50;;;;;;;5.74;37.26;100686.22;5320120;27;20444;-81
2021/04/07 21:17:25;;;;;;;10.48;5.78;;;;;;;5.88;37.33;100682.13;5320098;27;20108;-81
2021/04/07 21:36:30;;;;;;;;;;;;;;;;;;;;;
2021/04/07 21:43:16;;;;;;;10.52;5.07;;;;;;;4.36;43.40;100719.72;5069181;28;20079;-82
2021/04/07 21:45:44;;;;;;;8.70;5.55;;;;;;;4.44;43.12;100724.28;5104663;28;20216;-81
2021/04/07 21:48:13;;;;;;;10.20;5.05;;;;;;;4.54;42.66;100720.16;5163347;27;20109;-81